»·PEaware :: ADB2586 KOAK-PHNL

ADB2586 :: KOAK-PHNL

FLIGHT INFORMATION

Flight Status: Arrived
Operator:
Antonov Design Bureau
More flights by this operator :: More flights under this callsign
Pilot: Kim B. (19519)
Aircraft: ANTONOV AN-225 MRYIA
(A225)
More flights by this aircraft type
Origin: KOAK Metro Oakland Intl
United States
Destination: PHNL Honolulu Intl
United States
More flights between these airports :: More routes between these airports
Route: OAK3 OAK BEBOP R464 BAART R464 BITTA MAGGI3
File this flight plan on PilotEdge
Remarks:
Altitude:
(Current/Filed)
30,000ft
Speed:
(Current/Filed)
460kts
Departed: 18-Nov-18 02:31 PM
Arrived: 18-Nov-18 05:44 PM
Distance/Time
Traveled:
2090nm/3:13
Distance/Time
To Go:
Arrived

Flight Plot

Page will automatically refresh every two minutes.


Map Options




Map Legend


Flown Route
Filed Route
Departure Airport
Arrival Airport
Navaid (VOR, NDB)
Fix

Horizontal Profiles

Position Reports

Time Latitude Longitude Heading Altitude Ground
Speed
18-Nov-18 14:06 37.711301 -122.219434 128 25ft 0kts
18-Nov-18 14:07 37.711301 -122.219434 128 25ft 0kts
18-Nov-18 14:08 37.711301 -122.219434 128 25ft 0kts
18-Nov-18 14:09 37.711301 -122.219434 128 25ft 0kts
18-Nov-18 14:10 37.711301 -122.219434 128 25ft 0kts
18-Nov-18 14:11 37.711301 -122.219434 128 25ft 0kts
18-Nov-18 14:12 37.711301 -122.219434 128 25ft 0kts
18-Nov-18 14:13 37.711301 -122.219434 128 25ft 0kts
18-Nov-18 14:14 37.711301 -122.219434 128 25ft 0kts
18-Nov-18 14:15 37.711301 -122.219434 128 25ft 0kts
18-Nov-18 14:16 37.711301 -122.219434 128 25ft 0kts
18-Nov-18 14:17 37.711301 -122.219434 128 25ft 0kts
18-Nov-18 14:18 37.711301 -122.219434 128 25ft 0kts
18-Nov-18 14:19 37.711301 -122.219434 128 25ft 0kts
18-Nov-18 14:20 37.711301 -122.219434 128 25ft 0kts
18-Nov-18 14:21 37.711301 -122.219434 128 25ft 0kts
18-Nov-18 14:22 37.711301 -122.219434 128 25ft 0kts
18-Nov-18 14:23 37.711301 -122.219434 128 25ft 0kts
18-Nov-18 14:24 37.711301 -122.219434 128 25ft 0kts
18-Nov-18 14:25 37.711301 -122.219434 128 25ft 0kts
18-Nov-18 14:26 37.711301 -122.219434 128 25ft 0kts
18-Nov-18 14:27 37.711301 -122.219434 128 25ft 0kts
18-Nov-18 14:28 37.709191 -122.216055 146 25ft 24kts
18-Nov-18 14:29 37.703863 -122.214121 143 25ft 28kts
18-Nov-18 14:30 37.702519 -122.213614 184 25ft 0kts
18-Nov-18 14:31 37.702519 -122.213614 184 25ft 0kts
18-Nov-18 14:32 37.702218 -122.213691 195 25ft 8kts
18-Nov-18 14:33 37.701963 -122.214950 310 25ft 0kts
18-Nov-18 14:34 37.721027 -122.244110 309 273ft 241kts
18-Nov-18 14:35 37.768514 -122.312201 314 1127ft 250kts
18-Nov-18 14:36 37.813633 -122.382014 309 2036ft 260kts
18-Nov-18 14:37 37.859539 -122.453368 309 3578ft 266kts
18-Nov-18 14:38 37.907059 -122.525788 309 5280ft 272kts
18-Nov-18 14:39 37.955973 -122.600050 309 6988ft 279kts
18-Nov-18 14:40 37.973117 -122.684923 226 8597ft 280kts
18-Nov-18 14:41 37.923892 -122.764076 239 10479ft 324kts
18-Nov-18 14:42 37.880238 -122.871178 241 12373ft 392kts
18-Nov-18 14:43 37.831614 -122.992650 241 14238ft 400kts
18-Nov-18 14:44 37.781174 -123.118119 241 16130ft 408kts
18-Nov-18 14:45 37.728982 -123.247410 241 18036ft 419kts
18-Nov-18 14:46 37.675142 -123.380259 241 19946ft 431kts
18-Nov-18 14:47 37.619820 -123.516181 241 21850ft 442kts
18-Nov-18 14:48 37.563056 -123.655042 240 23746ft 454kts
18-Nov-18 14:49 37.504459 -123.797760 241 25649ft 466kts
18-Nov-18 14:50 37.445458 -123.940853 241 27518ft 458kts
18-Nov-18 14:51 37.387066 -124.081817 241 29391ft 453kts
18-Nov-18 14:52 37.328945 -124.221505 241 30133ft 450kts
18-Nov-18 14:53 37.270872 -124.360450 241 30135ft 449kts
18-Nov-18 14:54 37.212685 -124.499075 241 30137ft 450kts
18-Nov-18 14:55 37.154411 -124.637304 241 30134ft 450kts
18-Nov-18 14:56 37.096034 -124.775193 240 30133ft 448kts
18-Nov-18 14:57 37.037863 -124.912046 239 30131ft 443kts
18-Nov-18 14:58 36.985900 -125.050758 250 30138ft 443kts
18-Nov-18 14:59 36.947461 -125.195467 248 30131ft 440kts
18-Nov-18 15:00 36.908250 -125.340075 248 30131ft 441kts
18-Nov-18 15:01 36.868825 -125.484637 248 30140ft 438kts
18-Nov-18 15:02 36.829417 -125.628366 248 30140ft 444kts
18-Nov-18 15:03 36.795931 -125.749899 248 30140ft 446kts
18-Nov-18 15:04 36.748610 -125.920709 248 30138ft 446kts
18-Nov-18 15:05 36.708258 -126.065494 248 30136ft 446kts
18-Nov-18 15:06 36.674460 -126.186174 248 30136ft 445kts
18-Nov-18 15:07 36.626689 -126.355798 247 30137ft 446kts
18-Nov-18 15:08 36.592621 -126.476145 248 30134ft 446kts
18-Nov-18 15:09 36.544129 -126.646522 248 30135ft 446kts
18-Nov-18 15:10 36.509627 -126.767108 247 30134ft 446kts
18-Nov-18 15:11 36.461105 -126.935784 247 30136ft 446kts
18-Nov-18 15:12 36.426070 -127.056655 247 30132ft 448kts
18-Nov-18 15:13 36.383569 -127.202531 246 30134ft 451kts
18-Nov-18 15:14 36.340754 -127.348702 246 30134ft 450kts
18-Nov-18 15:15 36.302771 -127.477738 246 30134ft 451kts
18-Nov-18 15:16 36.263011 -127.612173 246 30134ft 451kts
18-Nov-18 15:17 36.219872 -127.757316 246 30134ft 451kts
18-Nov-18 15:18 36.176240 -127.903377 246 30112ft 453kts
18-Nov-18 15:19 36.132552 -128.048875 246 30109ft 453kts
18-Nov-18 15:20 36.088534 -128.194687 246 30114ft 452kts
18-Nov-18 15:21 36.044459 -128.339985 246 30109ft 452kts
18-Nov-18 15:22 36.000323 -128.484730 246 30104ft 452kts
18-Nov-18 15:23 35.956167 -128.628831 246 30107ft 453kts
18-Nov-18 15:24 35.912103 -128.771859 246 30104ft 453kts
18-Nov-18 15:25 35.867525 -128.915899 246 30112ft 453kts
18-Nov-18 15:26 35.822804 -129.059658 245 30112ft 456kts
18-Nov-18 15:27 35.778044 -129.202819 245 30109ft 457kts
18-Nov-18 15:28 35.732599 -129.347468 245 30113ft 457kts
18-Nov-18 15:29 35.686774 -129.492617 245 30110ft 458kts
18-Nov-18 15:30 35.640965 -129.636978 245 30109ft 457kts
18-Nov-18 15:31 35.594809 -129.781735 245 30111ft 457kts
18-Nov-18 15:32 35.548488 -129.926313 245 30110ft 457kts
18-Nov-18 15:33 35.501811 -130.071271 245 30111ft 457kts
18-Nov-18 15:34 35.454915 -130.216206 245 30115ft 456kts
18-Nov-18 15:35 35.407897 -130.360822 245 30116ft 457kts
18-Nov-18 15:36 35.360763 -130.505106 245 30125ft 457kts
18-Nov-18 15:37 35.313622 -130.648722 245 30129ft 456kts
18-Nov-18 15:38 35.266185 -130.792543 244 30134ft 456kts
18-Nov-18 15:39 35.181383 -131.047949 244 30138ft 466kts
18-Nov-18 15:40 35.132601 -131.193930 244 30135ft 466kts
18-Nov-18 15:41 35.083409 -131.340422 244 30132ft 466kts
18-Nov-18 15:42 35.034119 -131.486484 244 30133ft 466kts
18-Nov-18 15:43 34.984836 -131.631910 244 30132ft 462kts
18-Nov-18 15:44 34.935587 -131.776465 243 30130ft 461kts
18-Nov-18 15:45 34.886687 -131.919367 242 30142ft 457kts
18-Nov-18 15:46 34.837716 -132.061754 242 30139ft 456kts
18-Nov-18 15:47 34.788724 -132.203610 242 30137ft 457kts
18-Nov-18 15:48 34.739344 -132.345955 242 30136ft 456kts
18-Nov-18 15:49 34.689929 -132.487736 242 30140ft 456kts
18-Nov-18 15:50 34.640441 -132.629095 242 30135ft 457kts
18-Nov-18 15:51 34.590734 -132.770453 242 30134ft 456kts
18-Nov-18 15:52 34.540909 -132.911491 242 30134ft 455kts
18-Nov-18 15:53 34.489866 -133.055062 244 30135ft 479kts
18-Nov-18 15:54 34.437204 -133.202901 246 30136ft 472kts
18-Nov-18 15:55 34.385034 -133.348777 246 30136ft 473kts
18-Nov-18 15:56 34.332659 -133.494377 246 30134ft 473kts
18-Nov-18 15:57 34.280218 -133.639511 246 30140ft 472kts
18-Nov-18 15:58 34.227398 -133.785016 246 30134ft 472kts
18-Nov-18 15:59 34.174611 -133.929772 246 30136ft 473kts
18-Nov-18 16:00 34.121584 -134.074548 246 30134ft 473kts
18-Nov-18 16:01 34.068423 -134.219069 246 30135ft 472kts
18-Nov-18 16:02 34.015007 -134.363594 246 30136ft 473kts
18-Nov-18 16:03 33.961343 -134.508186 246 30138ft 472kts
18-Nov-18 16:04 33.907788 -134.651844 245 30137ft 472kts
18-Nov-18 16:05 33.853945 -134.795642 245 30136ft 471kts
18-Nov-18 16:06 33.799805 -134.939497 246 30132ft 477kts
18-Nov-18 16:07 33.744726 -135.085214 248 30133ft 480kts
18-Nov-18 16:08 33.689638 -135.230613 248 30134ft 478kts
18-Nov-18 16:09 33.634470 -135.375418 248 30134ft 478kts
18-Nov-18 16:10 33.579063 -135.520199 248 30133ft 478kts
18-Nov-18 16:11 33.523448 -135.664894 248 30136ft 479kts
18-Nov-18 16:12 33.467854 -135.808918 248 30136ft 479kts
18-Nov-18 16:13 33.411938 -135.953160 248 30137ft 479kts
18-Nov-18 16:14 33.355909 -136.097070 248 30138ft 478kts
18-Nov-18 16:15 33.299657 -136.240956 248 30138ft 479kts
18-Nov-18 16:16 33.243193 -136.384779 248 30139ft 478kts
18-Nov-18 16:17 33.186750 -136.527927 248 30139ft 479kts
18-Nov-18 16:18 33.130223 -136.670687 247 30130ft 479kts
18-Nov-18 16:19 33.073607 -136.812963 248 30130ft 472kts
18-Nov-18 16:20 33.018256 -136.951465 251 30133ft 458kts
18-Nov-18 16:21 32.964170 -137.086523 253 30134ft 449kts
18-Nov-18 16:22 32.910575 -137.219855 253 30135ft 448kts
18-Nov-18 16:23 32.856669 -137.353307 252 30118ft 448kts
18-Nov-18 16:24 32.802694 -137.486426 252 30118ft 447kts
18-Nov-18 16:25 32.748489 -137.619605 252 30117ft 449kts
18-Nov-18 16:26 32.694173 -137.752540 252 30126ft 448kts
18-Nov-18 16:27 32.639479 -137.885893 252 30126ft 449kts
18-Nov-18 16:28 32.584931 -138.018399 252 30125ft 448kts
18-Nov-18 16:29 32.530005 -138.151315 252 30125ft 448kts
18-Nov-18 16:30 32.475054 -138.283785 252 30124ft 450kts
18-Nov-18 16:31 32.420135 -138.415696 252 30124ft 449kts
18-Nov-18 16:32 32.364811 -138.548073 252 30124ft 449kts
18-Nov-18 16:33 32.309755 -138.679339 252 30134ft 450kts
18-Nov-18 16:34 32.254168 -138.811377 252 30132ft 450kts
18-Nov-18 16:35 32.198425 -138.943281 251 30132ft 449kts
18-Nov-18 16:36 32.142453 -139.075288 251 30132ft 453kts
18-Nov-18 16:37 32.085975 -139.207969 251 30132ft 455kts
18-Nov-18 16:38 32.029127 -139.340991 251 30132ft 455kts
18-Nov-18 16:39 31.972001 -139.474209 251 30131ft 455kts
18-Nov-18 16:40 31.914826 -139.607047 251 30131ft 455kts
18-Nov-18 16:41 31.857613 -139.739489 251 30123ft 456kts
18-Nov-18 16:42 31.800412 -139.871420 251 30123ft 456kts
18-Nov-18 16:43 31.743015 -140.003327 251 30123ft 456kts
18-Nov-18 16:44 31.685393 -140.135275 251 30123ft 456kts
18-Nov-18 16:45 31.627733 -140.266834 250 30123ft 456kts
18-Nov-18 16:46 31.570507 -140.396944 250 30122ft 456kts
18-Nov-18 16:47 31.514301 -140.524291 250 30126ft 457kts
18-Nov-18 16:48 31.456258 -140.655342 250 30132ft 459kts
18-Nov-18 16:49 31.398161 -140.786044 250 30139ft 459kts
18-Nov-18 16:50 31.340442 -140.915469 250 30139ft 459kts
18-Nov-18 16:51 31.281935 -141.046202 249 30139ft 461kts
18-Nov-18 16:52 31.222827 -141.177763 249 30139ft 461kts
18-Nov-18 16:53 31.163860 -141.308568 249 30139ft 461kts
18-Nov-18 16:54 31.104292 -141.440265 249 30139ft 461kts
18-Nov-18 16:55 31.045338 -141.570147 249 30138ft 461kts
18-Nov-18 16:56 30.986175 -141.700066 248 30145ft 460kts
18-Nov-18 16:57 30.926780 -141.830012 248 30144ft 458kts
18-Nov-18 16:58 30.867878 -141.958443 247 30132ft 457kts
18-Nov-18 16:59 30.809126 -142.086100 248 30132ft 457kts
18-Nov-18 17:00 30.749435 -142.215390 248 30131ft 457kts
18-Nov-18 17:01 30.689913 -142.343868 248 30131ft 457kts
18-Nov-18 17:02 30.629857 -142.473066 248 30131ft 457kts
18-Nov-18 17:03 30.570079 -142.601242 248 30131ft 457kts
18-Nov-18 17:04 30.510261 -142.729084 246 30138ft 456kts
18-Nov-18 17:05 30.450729 -142.855924 246 30137ft 456kts
18-Nov-18 17:06 30.391340 -142.982024 245 30137ft 457kts
18-Nov-18 17:07 30.331466 -143.108663 244 30136ft 457kts
18-Nov-18 17:08 30.271573 -143.234985 244 30136ft 457kts
18-Nov-18 17:09 30.211398 -143.361501 244 30136ft 457kts
18-Nov-18 17:10 30.151676 -143.486655 244 30136ft 457kts
18-Nov-18 17:11 30.091458 -143.612444 244 30135ft 457kts
18-Nov-18 17:12 30.030279 -143.739821 244 30140ft 457kts
18-Nov-18 17:13 29.968422 -143.868200 244 30140ft 457kts
18-Nov-18 17:14 29.906840 -143.995595 244 30140ft 457kts
18-Nov-18 17:15 29.855261 -144.101981 244 30133ft 457kts
18-Nov-18 17:16 29.783125 -144.250289 244 30133ft 457kts
18-Nov-18 17:17 29.720958 -144.377660 244 30132ft 457kts
18-Nov-18 17:18 29.658920 -144.504434 244 29886ft 456kts
18-Nov-18 17:19 29.627192 -144.567948 243 14344ft 646kts
18-Nov-18 17:47 21.327454 -157.939945 83 23ft 29kts
18-Nov-18 17:48 21.328898 -157.921998 358 23ft 13kts
18-Nov-18 17:49 21.329418 -157.922922 277 23ft 1kts
18-Nov-18 17:50 21.329419 -157.922930 277 23ft 0kts

Navigation Log

Ident Type
Flight plan parsing failed, navigation log unavailable